Time;durP1;ratioP1;P1;durP2;ratioP2;P2;SDS_P1;SDS_P2;PMS_P1;PMS_P2;Temp;Humidity;BMP_temperature;BMP_pressure;BME280_temperature;BME280_humidity;BME280_pressure;Samples;Min_cycle;Max_cycle;Signal;HPM_P1;HPM_P2
2023/03/11 00:00:26;;;;;;;4.30;3.97;;;1.40;99.90;;;;;;5077620;28;21021;-72
2023/03/11 00:02:54;;;;;;;3.83;3.53;;;1.30;99.90;;;;;;5077123;28;20455;-72
2023/03/11 00:05:23;;;;;;;5.40;4.10;;;1.30;99.90;;;;;;5087632;28;20607;-73
2023/03/11 00:07:50;;;;;;;4.00;3.50;;;1.30;99.90;;;;;;5083285;28;20503;-73
2023/03/11 00:10:19;;;;;;;4.73;3.60;;;1.30;99.90;;;;;;5080931;28;20503;-73
2023/03/11 00:12:45;;;;;;;4.33;3.83;;;1.20;99.90;;;;;;5072565;28;20517;-73
2023/03/11 00:15:13;;;;;;;4.43;4.03;;;1.20;99.90;;;;;;5078931;28;20975;-73
2023/03/11 00:17:41;;;;;;;4.20;3.90;;;1.20;99.90;;;;;;5080513;28;20505;-73
2023/03/11 00:20:14;;;;;;;4.50;3.70;;;1.20;99.90;;;;;;5087088;28;20459;-73
2023/03/11 00:22:41;;;;;;;6.47;3.37;;;1.20;99.90;;;;;;5075400;28;20857;-73
2023/03/11 00:25:09;;;;;;;6.20;3.80;;;1.20;99.90;;;;;;5079355;28;20472;-73
2023/03/11 00:27:36;;;;;;;3.90;3.50;;;1.20;99.90;;;;;;5073480;28;20444;-72
2023/03/11 00:30:03;;;;;;;3.00;2.80;;;1.10;99.90;;;;;;5076513;28;20447;-72
2023/03/11 00:32:30;;;;;;;3.90;3.60;;;1.10;99.90;;;;;;5078365;28;20451;-74
2023/03/11 00:34:58;;;;;;;3.63;3.33;;;1.20;99.90;;;;;;5083299;28;20491;-73
2023/03/11 00:37:24;;;;;;;3.73;2.97;;;1.00;99.90;;;;;;5073267;28;20798;-73
2023/03/11 00:39:51;;;;;;;3.57;3.30;;;1.00;99.90;;;;;;5074354;28;20467;-73
2023/03/11 00:42:17;;;;;;;4.17;3.77;;;1.00;99.90;;;;;;5073320;28;20537;-73
2023/03/11 00:44:45;;;;;;;3.80;3.40;;;1.00;99.90;;;;;;5073361;28;20475;-73
2023/03/11 00:47:12;;;;;;;3.63;3.33;;;1.00;99.90;;;;;;5082189;28;20508;-72
2023/03/11 00:49:39;;;;;;;5.20;4.00;;;1.00;99.90;;;;;;5083147;28;20517;-73
2023/03/11 00:52:07;;;;;;;6.33;3.23;;;1.00;99.90;;;;;;5075298;28;20452;-73
2023/03/11 00:54:34;;;;;;;4.80;3.60;;;1.00;99.90;;;;;;5072573;28;20491;-73
2023/03/11 00:57:01;;;;;;;3.63;3.30;;;1.00;99.90;;;;;;5075836;28;20941;-73
2023/03/11 00:59:27;;;;;;;3.50;3.30;;;1.00;99.90;;;;;;5086209;28;20451;-73
2023/03/11 01:01:54;;;;;;;3.20;2.90;;;1.00;99.90;;;;;;5080045;28;20462;-73
2023/03/11 01:04:21;;;;;;;3.03;2.83;;;1.00;99.90;;;;;;5076587;28;20474;-73
2023/03/11 01:06:47;;;;;;;4.20;2.70;;;1.00;99.90;;;;;;5082237;28;21035;-73
2023/03/11 01:09:15;;;;;;;3.40;3.13;;;1.00;99.90;;;;;;5081119;28;20979;-73
2023/03/11 01:11:42;;;;;;;3.00;2.80;;;1.00;99.90;;;;;;5085957;28;20459;-73
2023/03/11 01:14:09;;;;;;;2.90;2.70;;;1.00;99.90;;;;;;5081253;28;20471;-73
2023/03/11 01:16:36;;;;;;;3.90;3.27;;;1.10;99.90;;;;;;5078690;28;20490;-73
2023/03/11 01:19:02;;;;;;;5.10;3.60;;;1.00;99.90;;;;;;5078784;28;20529;-73
2023/03/11 01:21:29;;;;;;;3.63;3.10;;;1.00;99.90;;;;;;5075328;28;20505;-73
2023/03/11 01:23:56;;;;;;;3.37;2.93;;;1.00;99.90;;;;;;5081077;28;20486;-73
2023/03/11 01:26:24;;;;;;;7.50;3.50;;;1.00;99.90;;;;;;5090711;28;20450;-73
2023/03/11 01:28:50;;;;;;;7.83;2.90;;;1.00;99.90;;;;;;5086777;28;20854;-73
2023/03/11 01:31:17;;;;;;;4.00;2.90;;;1.00;99.90;;;;;;5083509;28;20458;-73
2023/03/11 01:33:44;;;;;;;3.33;3.03;;;1.00;99.90;;;;;;5078397;28;20508;-73
2023/03/11 01:36:10;;;;;;;3.00;2.80;;;0.90;99.90;;;;;;5080430;28;20858;-73
2023/03/11 01:38:37;;;;;;;3.33;3.00;;;1.00;99.90;;;;;;5078420;28;20952;-73
2023/03/11 01:41:04;;;;;;;3.57;3.27;;;0.90;99.90;;;;;;5089048;28;20451;-73
2023/03/11 01:43:47;;;;;;;4.17;3.63;;;0.90;99.90;;;;;;5084574;28;21009;-73
2023/03/11 01:46:16;;;;;;;3.30;3.10;;;0.90;99.90;;;;;;5082821;28;20514;-72
2023/03/11 01:48:46;;;;;;;3.83;3.53;;;0.80;99.90;;;;;;5078845;28;20451;-72
2023/03/11 01:51:13;;;;;;;4.13;2.80;;;0.80;99.90;;;;;;5081113;28;20459;-72
2023/03/11 01:53:40;;;;;;;9.13;3.43;;;0.80;99.90;;;;;;5086129;28;20539;-72
2023/03/11 01:56:07;;;;;;;4.63;3.47;;;0.80;99.90;;;;;;5081771;28;20491;-72
2023/03/11 01:58:38;;;;;;;10.03;3.57;;;0.80;99.90;;;;;;5082117;28;20800;-72
2023/03/11 02:01:07;;;;;;;4.20;2.67;;;0.70;99.90;;;;;;5076750;28;20580;-72
2023/03/11 02:03:36;;;;;;;3.07;2.83;;;0.70;99.90;;;;;;5075704;28;20472;-72
2023/03/11 02:06:07;;;;;;;5.60;3.20;;;0.70;99.90;;;;;;5090036;28;20447;-73
2023/03/11 02:08:34;;;;;;;6.07;3.27;;;0.70;99.90;;;;;;5081296;28;20456;-73
2023/03/11 02:11:03;;;;;;;3.77;2.97;;;0.60;99.90;;;;;;5085039;28;20455;-73
2023/03/11 02:13:32;;;;;;;4.30;3.07;;;0.70;99.90;;;;;;5078371;28;20466;-73
2023/03/11 02:16:00;;;;;;;9.77;2.90;;;0.80;99.90;;;;;;5078265;28;20490;-73
2023/03/11 02:18:28;;;;;;;3.50;3.20;;;0.70;99.90;;;;;;5083295;28;20462;-73
2023/03/11 02:21:04;;;;;;;6.27;3.70;;;0.70;99.90;;;;;;5079656;28;20452;-73
2023/03/11 02:23:43;;;;;;;5.60;3.20;;;0.80;99.90;;;;;;5086743;28;20461;-73
2023/03/11 02:26:17;;;;;;;4.37;3.10;;;0.70;99.90;;;;;;5082584;28;20502;-72
2023/03/11 02:28:46;;;;;;;4.33;3.03;;;0.70;99.90;;;;;;5075869;28;20448;-73
2023/03/11 02:31:13;;;;;;;9.33;2.80;;;0.70;99.90;;;;;;5073794;28;20448;-73
2023/03/11 02:33:41;;;;;;;8.33;3.30;;;0.70;99.90;;;;;;5085716;28;20503;-73
2023/03/11 02:36:29;;;;;;;3.03;2.83;;;0.70;99.90;;;;;;5081825;28;20488;-73
2023/03/11 02:38:56;;;;;;;5.27;2.97;;;0.70;99.90;;;;;;5076789;28;21020;-73
2023/03/11 02:41:22;;;;;;;3.27;2.90;;;0.70;99.90;;;;;;5077266;28;20448;-73
2023/03/11 02:43:50;;;;;;;5.10;3.33;;;0.70;99.90;;;;;;5083253;28;20479;-73
2023/03/11 02:46:18;;;;;;;3.83;3.07;;;0.70;99.90;;;;;;5086520;28;20459;-73
2023/03/11 02:48:46;;;;;;;4.53;3.70;;;0.80;99.90;;;;;;5083554;28;20451;-73
2023/03/11 02:51:12;;;;;;;3.87;2.90;;;0.80;99.90;;;;;;5079097;28;20468;-73
2023/03/11 02:53:49;;;;;;;6.40;3.70;;;0.80;99.90;;;;;;5076009;28;21182;-73
2023/03/11 02:56:15;;;;;;;7.47;3.17;;;0.90;99.90;;;;;;5074460;28;20487;-73
2023/03/11 02:58:42;;;;;;;4.60;2.97;;;0.90;99.90;;;;;;5081491;28;20455;-73
2023/03/11 03:01:10;;;;;;;3.87;3.20;;;0.90;99.90;;;;;;5082858;28;20451;-73
2023/03/11 03:03:37;;;;;;;4.17;3.07;;;0.80;99.90;;;;;;5078111;28;20552;-73
2023/03/11 03:06:04;;;;;;;4.60;3.20;;;0.80;99.90;;;;;;5078961;28;20452;-73
2023/03/11 03:08:31;;;;;;;3.87;3.07;;;0.80;99.90;;;;;;5076410;28;20448;-73
2023/03/11 03:10:58;;;;;;;6.33;3.03;;;0.80;99.90;;;;;;5083200;28;20455;-73
2023/03/11 03:13:25;;;;;;;6.70;3.27;;;0.80;99.90;;;;;;5088902;28;20995;-73
2023/03/11 03:15:52;;;;;;;3.93;3.53;;;0.80;99.90;;;;;;5080139;28;21049;-73
2023/03/11 03:18:20;;;;;;;3.33;3.00;;;0.70;99.90;;;;;;5078575;28;20785;-73
2023/03/11 03:20:46;;;;;;;5.23;3.27;;;0.70;99.90;;;;;;5075748;28;20498;-73
2023/03/11 03:23:14;;;;;;;9.13;3.40;;;0.70;99.90;;;;;;5074702;28;20456;-73
2023/03/11 03:25:42;;;;;;;7.93;3.37;;;0.90;99.90;;;;;;5090071;28;20455;-73
2023/03/11 03:28:09;;;;;;;3.50;3.00;;;0.80;99.90;;;;;;5086255;28;20973;-73
2023/03/11 03:30:35;;;;;;;4.57;3.43;;;0.80;99.90;;;;;;5080426;28;21026;-73
2023/03/11 03:33:02;;;;;;;12.10;3.67;;;0.90;99.90;;;;;;5077272;28;20448;-73
2023/03/11 03:35:30;;;;;;;7.40;3.73;;;0.90;99.90;;;;;;5078531;28;20616;-73
2023/03/11 03:37:57;;;;;;;3.73;3.43;;;0.90;99.90;;;;;;5089079;28;20903;-73
2023/03/11 03:40:24;;;;;;;5.00;3.70;;;0.90;99.90;;;;;;5087550;28;20485;-73
2023/03/11 03:42:51;;;;;;;4.50;3.80;;;0.90;99.90;;;;;;5076369;28;20453;-73
2023/03/11 03:45:18;;;;;;;5.37;3.70;;;0.90;99.90;;;;;;5079323;28;20462;-73
2023/03/11 03:47:45;;;;;;;4.33;3.93;;;0.90;99.90;;;;;;5079254;28;20445;-73
2023/03/11 03:50:12;;;;;;;4.83;3.27;;;0.80;99.90;;;;;;5071924;28;20505;-73
2023/03/11 03:52:40;;;;;;;11.27;3.80;;;0.80;99.90;;;;;;5087976;28;20504;-73
2023/03/11 03:55:07;;;;;;;7.90;3.90;;;0.90;99.90;;;;;;5085354;28;20468;-73
2023/03/11 03:57:34;;;;;;;4.53;3.83;;;0.80;99.90;;;;;;5081295;28;20494;-73
2023/03/11 04:00:01;;;;;;;7.03;3.43;;;0.80;99.90;;;;;;5076895;28;20452;-73
2023/03/11 04:02:27;;;;;;;4.13;3.57;;;0.80;99.90;;;;;;5081538;28;20447;-73
2023/03/11 04:04:54;;;;;;;6.53;3.87;;;0.80;99.90;;;;;;5071664;28;20525;-73
2023/03/11 04:07:20;;;;;;;6.47;3.93;;;0.80;99.90;;;;;;5078642;28;20452;-73
2023/03/11 04:09:48;;;;;;;5.40;3.73;;;0.80;99.90;;;;;;5079595;28;20508;-73
2023/03/11 04:12:16;;;;;;;4.40;3.70;;;0.80;99.90;;;;;;5076054;28;20453;-73
2023/03/11 04:14:43;;;;;;;5.90;3.63;;;0.90;99.90;;;;;;5074952;28;20474;-73
2023/03/11 04:17:11;;;;;;;3.70;3.40;;;0.80;99.90;;;;;;5073600;28;21057;-73
2023/03/11 04:19:37;;;;;;;4.17;3.87;;;0.80;99.90;;;;;;5070999;28;20960;-73
2023/03/11 04:22:04;;;;;;;4.00;3.70;;;0.80;99.90;;;;;;5080338;28;20464;-73
2023/03/11 04:24:31;;;;;;;7.47;3.87;;;0.80;99.90;;;;;;5086098;28;20466;-73
2023/03/11 04:26:59;;;;;;;4.20;3.80;;;0.70;99.90;;;;;;5076409;28;20448;-73
2023/03/11 04:29:26;;;;;;;4.20;3.80;;;0.80;99.90;;;;;;5075401;28;20456;-73
2023/03/11 04:31:53;;;;;;;3.77;3.43;;;0.70;99.90;;;;;;5075395;28;20487;-72
2023/03/11 04:34:19;;;;;;;4.00;3.70;;;0.70;99.90;;;;;;5087894;28;20544;-73
2023/03/11 04:36:46;;;;;;;5.30;3.50;;;0.70;99.90;;;;;;5082698;28;20479;-73
2023/03/11 04:39:14;;;;;;;3.97;3.53;;;0.70;99.90;;;;;;5079895;28;20493;-74
2023/03/11 04:41:41;;;;;;;4.10;3.70;;;0.70;99.90;;;;;;5075166;28;20504;-72
2023/03/11 04:44:09;;;;;;;6.33;3.83;;;0.60;99.90;;;;;;5079308;28;21052;-72
2023/03/11 04:46:36;;;;;;;3.80;3.43;;;0.60;99.90;;;;;;5078561;28;20456;-72
2023/03/11 04:49:02;;;;;;;4.70;3.80;;;0.60;99.90;;;;;;5085932;28;20953;-72
2023/03/11 04:51:29;;;;;;;3.77;3.47;;;0.60;99.90;;;;;;5082861;28;20868;-72
2023/03/11 04:53:56;;;;;;;4.33;3.40;;;0.60;99.90;;;;;;5075174;28;20521;-72
2023/03/11 04:56:23;;;;;;;3.80;3.50;;;0.60;99.90;;;;;;5072086;28;20540;-72
2023/03/11 04:58:50;;;;;;;4.73;3.53;;;0.60;99.90;;;;;;5077543;28;20521;-72
2023/03/11 05:01:17;;;;;;;4.97;3.17;;;0.60;99.90;;;;;;5086143;28;20877;-72
2023/03/11 05:03:45;;;;;;;2.90;2.70;;;0.60;99.90;;;;;;5085119;28;21014;-72
2023/03/11 05:06:11;;;;;;;3.60;3.30;;;0.70;99.90;;;;;;5079266;28;20978;-73
2023/03/11 05:08:39;;;;;;;6.33;3.23;;;0.70;99.90;;;;;;5077201;28;21015;-73
2023/03/11 05:11:06;;;;;;;3.20;2.93;;;0.70;99.90;;;;;;5074752;28;20448;-73
2023/03/11 05:13:33;;;;;;;4.37;2.90;;;0.70;99.90;;;;;;5088925;28;20470;-74
2023/03/11 05:15:59;;;;;;;6.33;3.80;;;0.80;99.90;;;;;;5077970;28;21045;-72
2023/03/11 05:18:28;;;;;;;4.63;3.60;;;0.80;99.90;;;;;;5085838;28;20938;-72
2023/03/11 05:20:55;;;;;;;5.23;3.60;;;0.80;99.90;;;;;;5075468;28;20534;-72
2023/03/11 05:23:21;;;;;;;4.23;3.90;;;0.80;99.90;;;;;;5080104;28;20479;-72
2023/03/11 05:25:48;;;;;;;6.90;3.70;;;0.80;99.90;;;;;;5084589;28;20504;-74
2023/03/11 05:28:15;;;;;;;7.87;3.93;;;0.80;99.90;;;;;;5083865;28;20451;-72
2023/03/11 05:30:41;;;;;;;4.10;3.70;;;0.80;99.90;;;;;;5081694;28;20459;-72
2023/03/11 05:33:08;;;;;;;6.13;3.93;;;0.80;99.90;;;;;;5080939;28;20479;-72
2023/03/11 05:35:36;;;;;;;9.20;3.67;;;0.80;99.90;;;;;;5083702;28;21031;-72
2023/03/11 05:38:03;;;;;;;4.60;3.73;;;0.70;99.90;;;;;;5079503;28;20593;-72
2023/03/11 05:40:29;;;;;;;3.83;3.53;;;0.80;99.90;;;;;;5091302;28;20455;-72
2023/03/11 05:42:56;;;;;;;4.27;3.30;;;0.70;99.90;;;;;;5085316;28;20518;-72
2023/03/11 05:45:22;;;;;;;5.50;3.90;;;0.80;99.90;;;;;;5087567;28;20964;-72
2023/03/11 05:47:51;;;;;;;5.27;3.40;;;0.70;99.90;;;;;;5079462;28;20443;-72
2023/03/11 05:50:18;;;;;;;8.57;4.00;;;0.70;99.90;;;;;;5075832;28;20459;-72
2023/03/11 05:52:46;;;;;;;5.03;4.37;;;0.80;99.90;;;;;;5081503;28;20444;-72
2023/03/11 05:55:12;;;;;;;8.23;3.77;;;0.80;99.90;;;;;;5089162;28;20471;-72
2023/03/11 05:57:39;;;;;;;3.60;2.80;;;0.70;99.90;;;;;;5086167;28;20533;-72
2023/03/11 06:00:10;;;;;;;6.30;4.10;;;0.70;99.90;;;;;;5079225;28;20453;-72
2023/03/11 06:02:38;;;;;;;4.70;3.70;;;0.70;99.90;;;;;;5081283;28;20466;-72
2023/03/11 06:05:06;;;;;;;4.20;3.17;;;0.70;99.90;;;;;;5085182;28;20515;-73
2023/03/11 06:07:34;;;;;;;3.33;3.03;;;0.70;99.90;;;;;;5078089;28;20514;-72
2023/03/11 06:10:02;;;;;;;4.53;2.67;;;0.70;99.90;;;;;;5076049;28;20462;-73
2023/03/11 06:12:29;;;;;;;3.17;2.97;;;0.80;99.90;;;;;;5075828;28;21041;-72
2023/03/11 06:14:55;;;;;;;5.20;3.23;;;0.70;99.90;;;;;;5080850;28;20479;-72
2023/03/11 06:17:22;;;;;;;6.67;4.90;;;0.60;99.90;;;;;;5073581;28;20493;-72
2023/03/11 06:19:49;;;;;;;15.00;3.97;;;0.60;99.90;;;;;;5072502;28;20515;-73
2023/03/11 06:22:15;;;;;;;4.93;3.20;;;0.60;99.90;;;;;;5080010;28;20510;-74
2023/03/11 06:24:42;;;;;;;5.50;3.77;;;0.60;99.90;;;;;;5080625;28;20537;-75
2023/03/11 06:27:10;;;;;;;5.20;3.37;;;0.70;99.90;;;;;;5073365;28;20500;-75
2023/03/11 06:29:36;;;;;;;10.17;3.33;;;0.70;99.90;;;;;;5072683;28;21002;-76
2023/03/11 06:32:03;;;;;;;8.00;3.30;;;0.70;99.90;;;;;;5073328;28;20460;-75
2023/03/11 06:34:30;;;;;;;4.30;3.90;;;0.60;99.90;;;;;;5073552;28;20468;-74
2023/03/11 06:36:58;;;;;;;4.47;3.63;;;0.70;99.90;;;;;;5072748;28;21057;-74
2023/03/11 06:39:25;;;;;;;3.77;3.30;;;0.80;99.90;;;;;;5079064;28;20466;-75
2023/03/11 06:41:51;;;;;;;6.40;3.77;;;0.70;99.90;;;;;;5078193;28;20507;-75
2023/03/11 06:44:19;;;;;;;4.07;3.60;;;0.70;99.90;;;;;;5082095;28;20481;-74
2023/03/11 06:46:46;;;;;;;6.60;3.60;;;0.80;99.90;;;;;;5076971;28;20464;-74
2023/03/11 06:49:12;;;;;;;12.83;3.73;;;0.90;99.90;;;;;;5073049;28;20452;-74
2023/03/11 06:51:39;;;;;;;5.30;3.80;;;0.90;99.90;;;;;;5078403;28;20509;-75
2023/03/11 06:54:07;;;;;;;7.70;3.40;;;0.90;99.90;;;;;;5074549;28;20480;-75
2023/03/11 06:56:33;;;;;;;4.80;4.33;;;0.90;99.90;;;;;;5075292;28;20487;-75
2023/03/11 06:59:00;;;;;;;6.23;3.63;;;0.90;99.90;;;;;;5082881;28;20505;-75
2023/03/11 07:01:28;;;;;;;4.33;3.33;;;1.00;99.90;;;;;;5077883;28;21001;-75
2023/03/11 07:03:54;;;;;;;5.53;3.70;;;1.30;99.90;;;;;;5080332;28;20517;-77
2023/03/11 07:06:23;;;;;;;7.27;3.80;;;1.70;99.90;;;;;;5082335;28;20445;-75
2023/03/11 07:08:51;;;;;;;9.07;4.60;;;1.90;99.90;;;;;;5079386;28;20455;-69
2023/03/11 07:11:20;;;;;;;4.57;4.00;;;2.70;99.90;;;;;;5076964;28;20511;-69
2023/03/11 07:13:47;;;;;;;5.60;4.00;;;3.80;99.90;;;;;;5081690;28;20479;-68
2023/03/11 07:16:15;;;;;;;12.13;4.10;;;5.20;99.90;;;;;;5072572;28;20816;-68
2023/03/11 07:18:45;;;;;;;4.03;3.60;;;6.50;99.90;;;;;;5073230;28;20881;-68
2023/03/11 07:21:13;;;;;;;9.70;3.78;;;7.80;99.90;;;;;;5074880;28;20453;-73
2023/03/11 07:23:40;;;;;;;6.80;3.87;;;8.70;99.90;;;;;;5082825;28;20281;-73
2023/03/11 07:26:08;;;;;;;4.60;3.30;;;8.90;99.90;;;;;;5075173;28;20446;-72
2023/03/11 07:28:35;;;;;;;9.57;3.57;;;9.30;99.90;;;;;;5074816;28;21017;-71
2023/03/11 07:31:07;;;;;;;7.93;3.50;;;9.40;99.90;;;;;;5073318;28;20509;-73
2023/03/11 07:33:34;;;;;;;4.43;3.33;;;9.40;99.90;;;;;;5072453;28;20899;-72
2023/03/11 07:36:05;;;;;;;12.30;4.50;;;9.10;99.90;;;;;;5078866;28;20459;-73
2023/03/11 07:38:32;;;;;;;8.63;3.70;;;8.50;99.90;;;;;;5071771;28;20479;-71
2023/03/11 07:40:59;;;;;;;5.93;4.00;;;7.50;99.90;;;;;;5084115;28;20601;-72
2023/03/11 07:43:26;;;;;;;11.30;4.00;;;6.30;99.90;;;;;;5080195;28;20483;-71
2023/03/11 07:45:53;;;;;;;8.03;4.77;;;5.50;99.90;;;;;;5086389;28;20451;-71
2023/03/11 07:48:20;;;;;;;8.53;3.87;;;4.90;99.90;;;;;;5077081;28;20448;-72
2023/03/11 07:50:47;;;;;;;13.50;4.47;;;4.30;99.90;;;;;;5074130;28;20452;-73
2023/03/11 07:53:15;;;;;;;9.37;3.80;;;3.80;99.90;;;;;;5071454;28;20525;-72
2023/03/11 07:55:41;;;;;;;6.83;4.10;;;3.40;99.90;;;;;;5078315;28;20521;-72
2023/03/11 07:58:08;;;;;;;10.27;4.20;;;3.10;99.90;;;;;;5071430;28;21126;-72
2023/03/11 08:00:34;;;;;;;6.43;4.20;;;2.80;99.90;;;;;;5076215;28;20517;-72
2023/03/11 08:03:01;;;;;;;5.80;4.73;;;2.70;99.90;;;;;;5077724;28;20451;-76
2023/03/11 08:05:28;;;;;;;8.00;4.47;;;2.50;99.90;;;;;;5079229;28;20969;-75
2023/03/11 08:07:54;;;;;;;7.80;4.40;;;2.40;99.90;;;;;;5075424;28;20517;-78
2023/03/11 08:10:22;;;;;;;10.63;5.30;;;2.30;99.90;;;;;;5080594;28;20461;-77
2023/03/11 08:12:50;;;;;;;9.00;4.67;;;2.20;99.90;;;;;;5076892;28;20500;-78
2023/03/11 08:15:17;;;;;;;8.67;4.40;;;2.20;99.90;;;;;;5074789;28;20533;-78
2023/03/11 08:17:44;;;;;;;9.23;5.40;;;2.20;99.90;;;;;;5079213;28;20543;-79
2023/03/11 08:20:11;;;;;;;10.10;4.40;;;2.30;99.90;;;;;;5074333;28;20453;-78
2023/03/11 08:22:38;;;;;;;10.93;4.80;;;2.40;99.90;;;;;;5072755;28;20524;-77
2023/03/11 08:25:05;;;;;;;9.97;5.77;;;2.50;99.90;;;;;;5078877;28;20469;-77
2023/03/11 08:27:33;;;;;;;10.73;5.37;;;2.70;99.90;;;;;;5081303;28;20795;-77
2023/03/11 08:30:00;;;;;;;7.20;4.30;;;2.80;99.90;;;;;;5079148;28;21014;-77
2023/03/11 08:32:30;;;;;;;8.73;4.20;;;2.90;99.90;;;;;;5073106;28;21030;-76
2023/03/11 08:34:57;;;;;;;11.07;4.77;;;2.80;99.90;;;;;;5080199;28;20918;-76
2023/03/11 08:37:23;;;;;;;12.97;4.53;;;2.90;99.90;;;;;;5079588;28;20498;-76
2023/03/11 08:39:50;;;;;;;8.83;4.37;;;2.90;99.90;;;;;;5082663;28;20458;-77
2023/03/11 08:42:18;;;;;;;7.33;4.10;;;2.90;99.90;;;;;;5081971;28;20941;-77
2023/03/11 08:44:46;;;;;;;14.43;6.13;;;2.80;99.90;;;;;;5079041;28;20483;-76
2023/03/11 08:47:13;;;;;;;8.63;4.50;;;2.90;99.90;;;;;;5085815;28;20879;-77
2023/03/11 08:49:40;;;;;;;6.20;4.20;;;3.00;99.90;;;;;;5088504;28;20465;-77
2023/03/11 08:52:07;;;;;;;7.33;3.73;;;3.10;99.90;;;;;;5082157;28;20476;-75
2023/03/11 08:54:33;;;;;;;6.40;3.43;;;3.10;99.90;;;;;;5086332;28;20523;-75
2023/03/11 08:57:02;;;;;;;7.87;3.83;;;3.20;99.90;;;;;;5077641;28;20456;-76
2023/03/11 08:59:29;;;;;;;5.30;3.80;;;3.30;99.90;;;;;;5084724;28;20489;-75
2023/03/11 09:01:57;;;;;;;7.93;3.73;;;3.50;99.90;;;;;;5085542;28;20508;-75
2023/03/11 09:04:24;;;;;;;5.10;3.27;;;3.70;99.90;;;;;;5090900;28;20472;-74
2023/03/11 09:06:50;;;;;;;5.80;3.60;;;4.10;99.90;;;;;;5089011;28;20850;-74
2023/03/11 09:09:19;;;;;;;6.93;3.50;;;4.40;99.90;;;;;;5083164;28;20497;-74
2023/03/11 09:11:46;;;;;;;11.00;3.13;;;4.40;99.90;;;;;;5090032;28;20538;-74
2023/03/11 09:14:12;;;;;;;5.17;3.03;;;4.30;99.90;;;;;;5089269;28;20473;-73
2023/03/11 09:16:40;;;;;;;3.83;3.03;;;4.30;99.90;;;;;;5090245;28;20803;-74
2023/03/11 09:19:08;;;;;;;3.90;2.73;;;4.40;99.90;;;;;;5081829;28;20487;-74
2023/03/11 09:21:36;;;;;;;6.53;2.90;;;4.90;99.90;;;;;;5081313;28;20964;-74
2023/03/11 09:24:04;;;;;;;9.00;2.73;;;5.50;99.90;;;;;;5080261;28;20483;-74
2023/03/11 09:26:31;;;;;;;6.20;3.37;;;6.30;99.90;;;;;;5078529;28;21036;-75
2023/03/11 09:28:58;;;;;;;4.30;2.70;;;6.90;99.90;;;;;;5083656;28;20866;-73
2023/03/11 09:31:24;;;;;;;9.60;3.27;;;6.90;99.90;;;;;;5086846;28;20468;-74
2023/03/11 09:33:54;;;;;;;2.70;2.50;;;6.30;99.90;;;;;;5085615;28;20472;-73
2023/03/11 09:36:22;;;;;;;3.43;2.47;;;5.50;99.90;;;;;;5087806;28;20455;-74
2023/03/11 09:38:49;;;;;;;5.27;2.97;;;4.90;99.90;;;;;;5087845;28;20552;-75
2023/03/11 09:41:27;;;;;;;7.20;2.77;;;4.30;99.90;;;;;;5090660;28;20456;-75
2023/03/11 09:44:06;;;;;;;6.07;2.47;;;3.90;99.90;;;;;;5081745;28;20757;-75
2023/03/11 09:47:03;;;;;;;10.33;3.20;;;3.70;99.90;;;;;;5089143;28;20887;-75
2023/03/11 09:49:42;;;;;;;12.93;2.93;;;3.50;99.90;;;;;;5081158;28;20451;-76
2023/03/11 09:52:13;;;;;;;6.00;2.20;;;3.40;99.90;;;;;;5079153;28;20477;-77
2023/03/11 09:54:45;;;;;;;4.83;2.17;;;3.30;99.90;;;;;;5077964;28;21026;-77
2023/03/11 09:57:16;;;;;;;6.27;2.17;;;3.20;99.90;;;;;;5082550;28;20449;-75
2023/03/11 09:59:44;;;;;;;5.13;2.57;;;3.10;99.90;;;;;;5087367;28;20949;-74
2023/03/11 10:02:15;;;;;;;3.03;2.30;;;3.10;99.90;;;;;;5081364;28;20466;-75
2023/03/11 10:04:45;;;;;;;2.33;2.10;;;3.10;99.90;;;;;;5087640;28;21059;-75
2023/03/11 10:07:20;;;;;;;5.40;2.43;;;3.20;99.90;;;;;;5083533;28;20511;-75
2023/03/11 10:09:50;;;;;;;9.53;2.50;;;3.20;99.90;;;;;;5088511;28;21042;-75
2023/03/11 10:12:32;;;;;;;4.63;2.00;;;3.30;99.90;;;;;;5088654;28;20449;-76
2023/03/11 10:15:14;;;;;;;4.50;2.20;;;3.30;99.90;;;;;;5083844;28;20865;-77
2023/03/11 10:17:59;;;;;;;3.53;2.13;;;3.30;99.90;;;;;;5083194;28;20485;-78
2023/03/11 10:20:30;;;;;;;2.73;1.73;;;3.50;99.90;;;;;;5085771;28;20483;-76
2023/03/11 10:23:15;;;;;;;4.83;1.93;;;3.80;99.90;;;;;;5084775;28;20459;-78
2023/03/11 10:25:50;;;;;;;3.15;1.70;;;4.30;99.90;;;;;;5088103;28;20440;-78
2023/03/11 10:28:18;;;;;;;5.90;2.10;;;5.00;99.90;;;;;;5087090;28;20197;-76
2023/03/11 10:30:47;;;;;;;7.10;2.75;;;5.50;99.90;;;;;;5083930;28;20470;-81
2023/03/11 10:33:21;;;;;;;4.67;2.17;;;5.70;99.90;;;;;;5083734;28;20213;-76
2023/03/11 10:35:52;;;;;;;3.30;1.90;;;5.80;99.90;;;;;;5085234;28;20456;-76
2023/03/11 10:38:23;;;;;;;7.03;2.23;;;5.60;99.90;;;;;;5087101;28;20501;-76
2023/03/11 10:40:53;;;;;;;4.97;2.20;;;5.90;99.90;;;;;;5089180;28;20980;-76
2023/03/11 10:43:26;;;;;;;9.33;2.60;;;6.30;99.90;;;;;;5074520;28;20522;-78
2023/03/11 10:45:54;;;;;;;2.70;2.50;;;7.10;99.90;;;;;;5085718;28;20457;-80
2023/03/11 10:48:22;;;;;;;5.20;2.00;;;7.80;99.90;;;;;;5079484;28;20452;-76
2023/03/11 10:50:54;;;;;;;3.43;1.97;;;8.30;99.90;;;;;;5087236;28;20455;-78
2023/03/11 10:53:22;;;;;;;4.57;2.00;;;8.60;99.90;;;;;;5081683;28;20466;-77
2023/03/11 10:55:50;;;;;;;5.10;2.07;;;8.80;99.90;;;;;;5085413;28;20460;-77
2023/03/11 10:58:19;;;;;;;2.07;1.80;;;9.20;99.90;;;;;;5088895;28;20476;-77
2023/03/11 11:00:46;;;;;;;2.63;1.80;;;9.30;99.90;;;;;;5083404;28;20540;-78
2023/03/11 11:03:19;;;;;;;14.83;2.23;;;8.90;99.90;;;;;;5082349;28;20454;-77
2023/03/11 11:05:58;;;;;;;2.80;1.63;;;8.30;99.90;;;;;;5077706;28;20803;-77
2023/03/11 11:08:26;;;;;;;14.07;3.13;;;7.80;99.90;;;;;;5075170;28;20457;-77
2023/03/11 11:10:54;;;;;;;4.97;2.07;;;7.20;99.90;;;;;;5080918;28;20457;-77
2023/03/11 11:13:23;;;;;;;3.83;1.70;;;6.80;99.90;;;;;;5088129;28;20476;-78
2023/03/11 11:15:55;;;;;;;3.13;1.63;;;6.70;99.90;;;;;;5077867;28;20516;-77
2023/03/11 11:18:25;;;;;;;3.43;1.53;;;6.60;99.90;;;;;;5083499;28;20547;-77
2023/03/11 11:21:05;;;;;;;6.70;1.80;;;6.40;99.90;;;;;;5075700;28;20463;-78
2023/03/11 11:23:37;;;;;;;2.37;1.80;;;6.30;99.90;;;;;;5088196;28;20466;-77
2023/03/11 11:26:07;;;;;;;2.43;1.70;;;6.20;99.90;;;;;;5077891;28;20490;-78
2023/03/11 11:28:34;;;;;;;1.70;1.53;;;6.30;99.90;;;;;;5084689;28;20444;-76
2023/03/11 11:31:03;;;;;;;4.33;2.03;;;6.20;99.90;;;;;;5079562;28;20467;-76
2023/03/11 11:33:32;;;;;;;3.23;1.93;;;6.10;99.90;;;;;;5078143;28;20471;-77
2023/03/11 11:36:01;;;;;;;7.20;2.70;;;6.10;99.90;;;;;;5083361;28;21018;-75
2023/03/11 11:38:30;;;;;;;3.23;1.70;;;6.60;99.90;;;;;;5083099;28;20486;-76
2023/03/11 11:41:01;;;;;;;3.53;2.00;;;7.40;99.90;;;;;;5091666;28;20510;-76
2023/03/11 11:43:48;;;;;;;5.27;2.40;;;8.10;99.90;;;;;;5081735;28;20566;-76
2023/03/11 11:46:20;;;;;;;2.90;1.93;;;8.50;99.90;;;;;;5080181;28;20462;-77
2023/03/11 11:48:54;;;;;;;3.83;2.00;;;9.00;99.90;;;;;;5084498;28;20513;-77
2023/03/11 11:51:25;;;;;;;2.27;1.80;;;9.60;99.90;;;;;;5084055;28;20977;-77
2023/03/11 11:53:58;;;;;;;2.47;1.83;;;10.10;99.90;;;;;;5078592;28;20484;-77
2023/03/11 11:56:27;;;;;;;2.63;2.10;;;10.40;99.90;;;;;;5084865;28;20450;-76
2023/03/11 11:58:54;;;;;;;3.23;1.83;;;10.10;99.90;;;;;;5081217;28;20877;-77
2023/03/11 12:01:31;;;;;;;4.00;1.60;;;9.70;99.90;;;;;;5082387;28;20449;-76
2023/03/11 12:04:27;;;;;;;5.80;2.57;;;8.00;99.90;;;;;;5080983;28;20984;-76
2023/03/11 12:07:06;;;;;;;7.57;2.27;;;7.30;99.90;;;;;;5065084;28;20506;-76
2023/03/11 12:09:38;;;;;;;7.30;2.43;;;7.10;99.90;;;;;;5083339;28;20522;-75
2023/03/11 12:12:19;;;;;;;6.60;2.40;;;7.00;99.90;;;;;;5085883;28;20524;-76
2023/03/11 12:14:52;;;;;;;4.40;2.23;;;6.90;99.90;;;;;;5074197;28;21057;-76
2023/03/11 12:17:22;;;;;;;5.73;2.20;;;6.90;99.90;;;;;;5080568;28;20980;-75
2023/03/11 12:19:53;;;;;;;5.43;1.80;;;6.70;99.90;;;;;;5087559;28;20482;-77
2023/03/11 12:22:56;;;;;;;8.97;2.90;;;6.50;99.90;;;;;;5083917;28;20452;-77
2023/03/11 12:25:32;;;;;;;7.33;1.87;;;6.30;99.90;;;;;;5072730;28;20547;-77
2023/03/11 12:28:14;;;;;;;2.60;2.00;;;6.30;99.90;;;;;;5088209;28;20496;-77
2023/03/11 12:30:44;;;;;;;5.43;1.90;;;6.20;99.90;;;;;;5085959;28;20861;-75
2023/03/11 12:33:17;;;;;;;6.60;2.03;;;6.10;99.90;;;;;;5090758;28;20460;-76
2023/03/11 12:35:50;;;;;;;5.93;2.33;;;6.10;99.90;;;;;;5082381;28;20501;-76
2023/03/11 12:38:20;;;;;;;4.27;1.60;;;6.00;99.90;;;;;;5082112;28;20492;-76
2023/03/11 12:41:27;;;;;;;14.33;2.20;;;6.10;99.90;;;;;;5084855;28;20878;-77
2023/03/11 12:44:24;;;;;;;4.13;2.17;;;6.00;99.90;;;;;;5039241;28;21027;-76
2023/03/11 12:47:03;;;;;;;3.60;1.87;;;6.10;99.90;;;;;;5074896;28;20877;-74
2023/03/11 12:49:31;;;;;;;7.97;2.20;;;6.30;99.90;;;;;;5084871;28;20450;-75
2023/03/11 12:52:03;;;;;;;3.83;1.87;;;6.30;99.90;;;;;;5076213;28;20521;-75
2023/03/11 12:54:32;;;;;;;10.10;1.97;;;6.40;99.90;;;;;;5077443;28;20476;-74
2023/03/11 12:57:01;;;;;;;2.43;2.20;;;6.50;99.90;;;;;;5084031;28;20479;-76
2023/03/11 13:00:06;;;;;;;2.53;2.10;;;6.40;99.90;;;;;;5080555;28;20986;-76
2023/03/11 13:03:21;;;;;;;3.47;1.97;;;6.40;99.90;;;;;;5070963;28;20457;-76
2023/03/11 13:05:57;;;;;;;5.50;2.27;;;6.30;99.90;;;;;;5008290;28;20466;-76